createdAt,value
2022-10-18T00:05:10.871Z,11.00
2022-10-18T00:11:15.674Z,10.85
2022-10-18T00:17:19.140Z,10.30
2022-10-18T00:23:22.550Z,11.32
2022-10-18T00:29:27.364Z,11.60
2022-10-18T00:35:30.768Z,11.57
2022-10-18T00:41:35.394Z,11.85
2022-10-18T00:47:40.298Z,12.57
2022-10-18T00:53:43.804Z,12.40
2022-10-18T00:59:48.032Z,11.98
2022-10-18T01:05:53.309Z,11.50
2022-10-18T01:12:08.280Z,11.98
2022-10-18T01:18:15.858Z,12.40
2022-10-18T01:24:35.800Z,12.30
2022-10-18T01:30:46.226Z,13.43
2022-10-18T01:36:51.656Z,12.15
2022-10-18T01:42:55.185Z,11.95
2022-10-18T01:49:00.147Z,10.25
2022-10-18T01:55:04.786Z,10.63
2022-10-18T02:07:20.361Z,10.65
2022-10-18T02:13:25.407Z,11.70
2022-10-18T02:19:31.930Z,10.70
2022-10-18T02:25:37.533Z,10.07
2022-10-18T02:31:44.800Z,10.63
2022-10-18T02:37:50.482Z,10.73
2022-10-18T02:43:55.643Z,11.20
2022-10-18T02:49:59.253Z,10.32
2022-10-18T02:56:03.369Z,11.02
2022-10-18T03:02:08.261Z,10.25
2022-10-18T03:08:11.701Z,11.13
2022-10-18T03:14:15.265Z,10.73
2022-10-18T03:20:20.302Z,11.30
2022-10-18T03:26:23.697Z,10.95
2022-10-18T03:32:27.952Z,10.45
2022-10-18T03:38:32.702Z,10.30
2022-10-18T03:44:36.132Z,11.27
2022-10-18T03:50:39.485Z,10.70
2022-10-18T03:56:44.253Z,9.48
2022-10-18T04:02:50.803Z,10.73
2022-10-18T04:08:57.045Z,11.40
2022-10-18T04:15:01.845Z,9.98
2022-10-18T04:21:05.234Z,9.82
2022-10-18T04:27:09.420Z,9.55
2022-10-18T04:33:14.327Z,8.95
2022-10-18T04:39:17.806Z,9.02
2022-10-18T04:45:21.343Z,9.68
2022-10-18T04:51:26.200Z,8.50
2022-10-18T04:57:29.842Z,9.27
2022-10-18T05:03:33.440Z,9.10
2022-10-18T05:09:38.163Z,9.48
2022-10-18T05:15:41.539Z,15.68
2022-10-18T05:21:44.924Z,13.65
2022-10-18T05:27:49.677Z,10.70
2022-10-18T05:33:53.380Z,9.68
2022-10-18T05:39:56.819Z,7.53
2022-10-18T05:46:01.691Z,7.57
2022-10-18T05:52:05.105Z,7.50
2022-10-18T05:58:08.436Z,8.80
2022-10-18T06:04:13.249Z,8.13
2022-10-18T06:10:16.705Z,7.70
2022-10-18T06:16:22.074Z,12.23
2022-10-18T06:22:26.870Z,11.20
2022-10-18T06:28:30.776Z,8.52
2022-10-18T06:34:34.268Z,8.15
2022-10-18T06:40:39.490Z,8.38
2022-10-18T06:46:42.953Z,7.60
2022-10-18T06:52:48.839Z,7.80
2022-10-18T06:58:53.745Z,8.65
2022-10-18T07:04:57.227Z,8.32
2022-10-18T07:11:00.742Z,8.20
2022-10-18T07:17:05.538Z,9.68
2022-10-18T07:23:09.841Z,10.77
2022-10-18T07:29:15.178Z,10.48
2022-10-18T07:35:20.189Z,10.27
2022-10-18T07:41:23.588Z,10.65
2022-10-18T07:47:29.032Z,10.27
2022-10-18T07:53:36.239Z,10.18
2022-10-18T07:59:39.884Z,9.40
2022-10-18T08:05:43.268Z,8.90
2022-10-18T08:11:48.072Z,8.90
2022-10-18T08:17:51.873Z,8.90
2022-10-18T08:23:55.560Z,7.95
2022-10-18T08:30:02.125Z,8.10
2022-10-18T08:36:06.805Z,8.70
2022-10-18T08:42:15.853Z,8.15
2022-10-18T08:48:22.898Z,8.68
2022-10-18T08:54:32.252Z,8.20
2022-10-18T09:00:38.819Z,8.45
2022-10-18T09:06:46.621Z,7.55
2022-10-18T09:13:04.929Z,10.10
2022-10-18T09:19:13.485Z,8.13
2022-10-18T09:25:19.940Z,8.10
2022-10-18T09:31:25.599Z,8.43
2022-10-18T09:37:31.027Z,9.82
2022-10-18T09:43:44.415Z,7.15
2022-10-18T09:49:49.251Z,7.50
2022-10-18T09:56:03.112Z,7.57
2022-10-18T10:02:08.265Z,8.70
2022-10-18T10:08:11.881Z,7.28
2022-10-18T10:20:23.042Z,7.30
2022-10-18T10:26:27.394Z,11.45
2022-10-18T10:32:32.729Z,5.47
2022-10-18T10:38:37.515Z,6.00
2022-10-18T10:44:56.365Z,5.72
2022-10-18T10:51:03.063Z,5.50
2022-10-18T10:57:11.336Z,6.00
2022-10-18T11:03:31.178Z,4.45
2022-10-18T11:09:49.544Z,4.53
2022-10-18T11:15:55.168Z,4.63
2022-10-18T11:21:59.139Z,3.80
2022-10-18T11:28:05.564Z,5.53
2022-10-18T11:34:18.079Z,6.30
2022-10-18T11:40:29.133Z,8.43
2022-10-18T11:46:38.624Z,8.88
2022-10-18T11:52:46.763Z,10.48
2022-10-18T11:58:56.495Z,12.68
2022-10-18T12:05:22.536Z,9.55
2022-10-18T12:11:29.010Z,8.75
2022-10-18T12:17:49.641Z,11.60
2022-10-18T12:23:55.326Z,7.85
2022-10-18T12:30:04.477Z,7.55
2022-10-18T12:36:13.629Z,6.88
2022-10-18T12:42:22.021Z,6.70
2022-10-18T12:48:34.491Z,5.10
2022-10-18T12:54:38.723Z,5.78
2022-10-18T13:01:02.261Z,5.25
2022-10-18T13:07:21.078Z,4.82
2022-10-18T13:13:39.647Z,6.28
2022-10-18T13:20:02.876Z,7.22
2022-10-18T13:26:18.664Z,4.72
2022-10-18T13:32:25.955Z,6.10
2022-10-18T13:38:34.631Z,7.80
2022-10-18T13:44:40.340Z,6.78
2022-10-18T13:50:45.155Z,6.18
2022-10-18T13:56:53.491Z,6.43
2022-10-18T14:03:31.674Z,5.47
2022-10-18T14:09:49.966Z,3.17
2022-10-18T14:15:59.400Z,4.05
2022-10-18T14:22:09.069Z,3.30
2022-10-18T14:28:15.573Z,3.83
2022-10-18T14:34:19.060Z,3.35
2022-10-18T14:40:33.117Z,3.75
2022-10-18T14:46:43.432Z,4.20
2022-10-18T14:52:47.000Z,3.10
2022-10-18T14:58:54.032Z,2.78
2022-10-18T15:04:59.931Z,3.28
2022-10-18T15:11:03.383Z,3.35
2022-10-18T15:17:10.169Z,3.42
2022-10-18T15:23:23.467Z,2.40
2022-10-18T15:29:28.140Z,2.33
2022-10-18T15:35:32.805Z,2.85
2022-10-18T15:41:41.664Z,2.08
2022-10-18T15:47:58.364Z,2.63
2022-10-18T15:54:01.947Z,2.42
2022-10-18T16:00:09.500Z,1.98
2022-10-18T16:06:16.039Z,2.45
2022-10-18T16:12:21.679Z,2.20
2022-10-18T16:18:26.887Z,2.00
2022-10-18T16:24:30.288Z,2.70
2022-10-18T16:30:39.076Z,2.30
2022-10-18T16:36:43.901Z,2.25
2022-10-18T16:42:50.465Z,2.55
2022-10-18T16:48:53.883Z,2.72
2022-10-18T16:54:58.733Z,2.30
2022-10-18T17:01:06.720Z,3.08
2022-10-18T17:07:22.991Z,2.30
2022-10-18T17:13:28.107Z,3.15
2022-10-18T17:19:31.656Z,2.40
2022-10-18T17:25:42.191Z,2.90
2022-10-18T17:31:56.478Z,3.10
2022-10-18T17:38:00.060Z,3.83
2022-10-18T17:44:04.543Z,3.80
2022-10-18T17:50:09.729Z,2.75
2022-10-18T17:56:13.979Z,2.83
2022-10-18T18:02:17.535Z,2.58
2022-10-18T18:08:22.604Z,2.70
2022-10-18T18:14:26.357Z,2.60
2022-10-18T18:20:29.745Z,2.45
2022-10-18T18:26:34.878Z,2.97
2022-10-18T18:32:38.345Z,2.50
2022-10-18T18:38:43.551Z,2.42
2022-10-18T18:44:48.943Z,3.25
2022-10-18T18:50:53.767Z,2.88
2022-10-18T18:56:57.974Z,3.30
2022-10-18T19:03:03.369Z,2.90
2022-10-18T19:09:12.662Z,2.92
2022-10-18T19:15:16.250Z,3.53
2022-10-18T19:21:21.509Z,2.85
2022-10-18T19:27:25.168Z,3.10
2022-10-18T19:33:41.338Z,2.55
2022-10-18T19:39:53.320Z,3.13
2022-10-18T19:45:56.701Z,2.65
2022-10-18T19:52:00.242Z,2.55
2022-10-18T19:58:04.994Z,2.95
2022-10-18T20:04:09.118Z,2.85
2022-10-18T20:10:12.660Z,2.80
2022-10-18T20:16:18.123Z,2.50
2022-10-18T20:22:21.497Z,2.50
2022-10-18T20:28:25.540Z,2.58
2022-10-18T20:34:30.820Z,2.30
2022-10-18T20:40:34.329Z,2.58
2022-10-18T20:46:38.368Z,2.75
2022-10-18T20:52:44.041Z,2.80
2022-10-18T20:58:48.159Z,3.30
2022-10-18T21:04:51.846Z,3.70
2022-10-18T21:10:56.848Z,3.83
2022-10-18T21:17:00.226Z,3.55
2022-10-18T21:23:03.642Z,3.85
2022-10-18T21:29:08.749Z,3.80
2022-10-18T21:35:12.804Z,3.25
2022-10-18T21:41:16.922Z,3.80
2022-10-18T21:47:21.963Z,4.10
2022-10-18T21:53:25.358Z,3.88
2022-10-18T21:59:29.231Z,4.28
2022-10-18T22:05:34.217Z,4.53
2022-10-18T22:11:39.274Z,4.43
2022-10-18T22:17:42.916Z,4.60
2022-10-18T22:23:48.472Z,3.70
2022-10-18T22:29:52.143Z,4.40
2022-10-18T22:35:55.538Z,3.92
2022-10-18T22:42:00.486Z,4.50
2022-10-18T22:48:04.062Z,3.85
2022-10-18T22:54:07.508Z,4.25
2022-10-18T23:00:13.426Z,4.35
2022-10-18T23:06:21.557Z,4.50
2022-10-18T23:12:24.919Z,4.35
2022-10-18T23:18:29.887Z,4.72
2022-10-18T23:24:33.588Z,5.15
2022-10-18T23:30:39.526Z,4.68
2022-10-18T23:42:52.622Z,4.55
2022-10-18T23:48:55.998Z,4.28
2022-10-18T23:55:00.765Z,4.43
